sensor_id;sensor_type;location;lat;lon;timestamp;pressure;altitude;pressure_sealevel;temperature;humidity
80424;BME280;69765;47.668;19.326;2023-09-08T09:18:05;99774.50;;;37.40;21.51
80424;BME280;69765;47.668;19.326;2023-09-08T09:21:08;99768.13;;;38.19;20.49
80424;BME280;69765;47.668;19.326;2023-09-08T09:24:15;99767.88;;;38.25;20.20
80424;BME280;69765;47.668;19.326;2023-09-08T09:27:21;99766.09;;;38.49;19.98
80424;BME280;69765;47.668;19.326;2023-09-08T09:30:24;99766.25;;;38.46;19.42
80424;BME280;69765;47.668;19.326;2023-09-08T09:33:27;99762.06;;;39.28;18.75
80424;BME280;69765;47.668;19.326;2023-09-08T09:36:31;99755.97;;;39.24;18.64
80424;BME280;69765;47.668;19.326;2023-09-08T09:39:33;99756.47;;;39.34;18.80
80424;BME280;69765;47.668;19.326;2023-09-08T09:42:38;99762.44;;;38.97;18.29
80424;BME280;69765;47.668;19.326;2023-09-08T09:45:42;99754.53;;;39.58;18.13
80424;BME280;69765;47.668;19.326;2023-09-08T09:48:45;99748.75;;;39.88;17.22
80424;BME280;69765;47.668;19.326;2023-09-08T09:51:49;99747.88;;;39.46;18.40
80424;BME280;69765;47.668;19.326;2023-09-08T09:54:53;99751.28;;;40.11;17.46
80424;BME280;69765;47.668;19.326;2023-09-08T09:57:57;99746.09;;;39.03;19.42
80424;BME280;69765;47.668;19.326;2023-09-08T10:01:06;99743.72;;;38.95;18.58
80424;BME280;69765;47.668;19.326;2023-09-08T10:04:09;99749.28;;;39.13;18.73
80424;BME280;69765;47.668;19.326;2023-09-08T10:07:12;99743.25;;;40.11;17.84
80424;BME280;69765;47.668;19.326;2023-09-08T10:10:16;99740.03;;;40.41;17.94
80424;BME280;69765;47.668;19.326;2023-09-08T10:13:26;99736.44;;;40.02;17.85
80424;BME280;69765;47.668;19.326;2023-09-08T10:16:34;99740.34;;;40.72;16.61
80424;BME280;69765;47.668;19.326;2023-09-08T10:19:37;99733.06;;;39.16;17.91
80424;BME280;69765;47.668;19.326;2023-09-08T10:22:48;99738.66;;;37.70;18.91
80424;BME280;69765;47.668;19.326;2023-09-08T10:25:57;99735.06;;;37.71;19.20
80424;BME280;69765;47.668;19.326;2023-09-08T10:29:04;99732.53;;;39.29;18.29
80424;BME280;69765;47.668;19.326;2023-09-08T10:32:08;99726.34;;;39.48;17.39
80424;BME280;69765;47.668;19.326;2023-09-08T10:35:12;99727.81;;;39.55;17.78
80424;BME280;69765;47.668;19.326;2023-09-08T10:38:28;99723.47;;;39.73;20.38
80424;BME280;69765;47.668;19.326;2023-09-08T10:41:30;99719.50;;;39.81;17.20
80424;BME280;69765;47.668;19.326;2023-09-08T10:44:34;99734.50;;;40.06;15.65
80424;BME280;69765;47.668;19.326;2023-09-08T10:47:56;99723.72;;;40.26;15.93
80424;BME280;69765;47.668;19.326;2023-09-08T10:50:59;99723.00;;;39.63;16.84
80424;BME280;69765;47.668;19.326;2023-09-08T10:54:02;99722.25;;;38.51;19.11
80424;BME280;69765;47.668;19.326;2023-09-08T10:57:15;99716.00;;;39.59;16.20
80424;BME280;69765;47.668;19.326;2023-09-08T11:00:18;99714.16;;;39.19;17.17
80424;BME280;69765;47.668;19.326;2023-09-08T11:03:27;99714.53;;;37.47;18.86
80424;BME280;69765;47.668;19.326;2023-09-08T11:06:30;99715.19;;;38.03;18.18
80424;BME280;69765;47.668;19.326;2023-09-08T11:09:36;99714.25;;;38.04;19.12
80424;BME280;69765;47.668;19.326;2023-09-08T11:12:39;99713.34;;;38.27;17.37
80424;BME280;69765;47.668;19.326;2023-09-08T11:15:41;99712.56;;;38.02;18.18
80424;BME280;69765;47.668;19.326;2023-09-08T11:18:43;99707.50;;;37.94;18.41
80424;BME280;69765;47.668;19.326;2023-09-08T11:21:47;99712.25;;;37.61;19.00
80424;BME280;69765;47.668;19.326;2023-09-08T11:24:49;99718.00;;;37.50;18.56
80424;BME280;69765;47.668;19.326;2023-09-08T11:27:52;99699.91;;;37.05;18.72
80424;BME280;69765;47.668;19.326;2023-09-08T11:30:55;99702.81;;;39.34;17.14
80424;BME280;69765;47.668;19.326;2023-09-08T11:33:58;99693.34;;;39.46;16.83
80424;BME280;69765;47.668;19.326;2023-09-08T11:37:12;99691.38;;;39.90;16.44
80424;BME280;69765;47.668;19.326;2023-09-08T11:40:15;99687.88;;;39.88;16.78
80424;BME280;69765;47.668;19.326;2023-09-08T11:43:19;99687.81;;;40.10;15.39
80424;BME280;69765;47.668;19.326;2023-09-08T11:46:22;99688.47;;;39.95;15.97
80424;BME280;69765;47.668;19.326;2023-09-08T11:49:24;99692.53;;;39.23;16.85
80424;BME280;69765;47.668;19.326;2023-09-08T11:52:29;99687.00;;;37.68;16.73
80424;BME280;69765;47.668;19.326;2023-09-08T11:55:32;99683.66;;;37.88;17.98
80424;BME280;69765;47.668;19.326;2023-09-08T11:58:35;99679.69;;;38.22;17.98
80424;BME280;69765;47.668;19.326;2023-09-08T12:01:38;99684.25;;;36.95;17.82
80424;BME280;69765;47.668;19.326;2023-09-08T12:04:41;99680.44;;;37.77;18.16
80424;BME280;69765;47.668;19.326;2023-09-08T12:07:44;99673.13;;;37.82;17.49
80424;BME280;69765;47.668;19.326;2023-09-08T12:10:46;99673.06;;;37.60;17.92
80424;BME280;69765;47.668;19.326;2023-09-08T12:13:49;99670.38;;;38.32;18.05
80424;BME280;69765;47.668;19.326;2023-09-08T12:17:05;99669.34;;;36.86;18.43
80424;BME280;69765;47.668;19.326;2023-09-08T12:20:14;99664.91;;;37.13;18.76
80424;BME280;69765;47.668;19.326;2023-09-08T12:26:20;99648.44;;;37.99;17.33
80424;BME280;69765;47.668;19.326;2023-09-08T12:29:23;99648.34;;;37.77;18.10
80424;BME280;69765;47.668;19.326;2023-09-08T12:32:31;99649.19;;;36.49;20.00
80424;BME280;69765;47.668;19.326;2023-09-08T12:35:34;99652.91;;;34.49;21.33
80424;BME280;69765;47.668;19.326;2023-09-08T12:38:37;99644.34;;;34.33;21.76
80424;BME280;69765;47.668;19.326;2023-09-08T12:41:39;99636.84;;;34.88;20.84
80424;BME280;69765;47.668;19.326;2023-09-08T12:44:42;99633.81;;;35.69;20.46
80424;BME280;69765;47.668;19.326;2023-09-08T12:47:45;99639.09;;;35.05;21.85
80424;BME280;69765;47.668;19.326;2023-09-08T12:50:48;99641.53;;;33.57;22.03
80424;BME280;69765;47.668;19.326;2023-09-08T12:53:51;99627.97;;;34.13;22.34
80424;BME280;69765;47.668;19.326;2023-09-08T12:56:53;99623.47;;;35.24;21.45
80424;BME280;69765;47.668;19.326;2023-09-08T12:59:56;99629.38;;;33.46;22.44
80424;BME280;69765;47.668;19.326;2023-09-08T13:02:58;99621.47;;;33.43;22.54
80424;BME280;69765;47.668;19.326;2023-09-08T13:06:01;99626.75;;;32.36;23.97
80424;BME280;69765;47.668;19.326;2023-09-08T13:09:03;99623.16;;;32.42;23.58
80424;BME280;69765;47.668;19.326;2023-09-08T13:12:06;99622.53;;;32.24;23.45
80424;BME280;69765;47.668;19.326;2023-09-08T13:15:11;99625.53;;;32.60;24.10
80424;BME280;69765;47.668;19.326;2023-09-08T13:18:13;99616.53;;;32.70;24.34
80424;BME280;69765;47.668;19.326;2023-09-08T13:21:16;99615.88;;;32.54;23.83
80424;BME280;69765;47.668;19.326;2023-09-08T13:24:19;99618.34;;;31.33;25.64
80424;BME280;69765;47.668;19.326;2023-09-08T13:27:23;99624.44;;;30.36;27.02
80424;BME280;69765;47.668;19.326;2023-09-08T13:30:25;99617.09;;;30.79;24.95
80424;BME280;69765;47.668;19.326;2023-09-08T13:33:29;99603.44;;;31.19;27.27
80424;BME280;69765;47.668;19.326;2023-09-08T13:36:32;99607.81;;;31.26;26.16
80424;BME280;69765;47.668;19.326;2023-09-08T13:39:34;99610.31;;;31.43;26.48
80424;BME280;69765;47.668;19.326;2023-09-08T13:42:39;99612.06;;;30.41;26.98
80424;BME280;69765;47.668;19.326;2023-09-08T13:45:41;99610.72;;;29.58;26.31
80424;BME280;69765;47.668;19.326;2023-09-08T13:48:45;99612.47;;;29.49;26.88
80424;BME280;69765;47.668;19.326;2023-09-08T13:51:48;99605.44;;;29.51;26.91
80424;BME280;69765;47.668;19.326;2023-09-08T13:54:53;99595.78;;;29.50;26.99
80424;BME280;69765;47.668;19.326;2023-09-08T13:58:16;99597.44;;;29.77;28.36
80424;BME280;69765;47.668;19.326;2023-09-08T14:01:21;99594.00;;;29.60;28.66
80424;BME280;69765;47.668;19.326;2023-09-08T14:04:28;99583.34;;;29.77;27.86
80424;BME280;69765;47.668;19.326;2023-09-08T14:07:35;99590.28;;;29.96;27.70
80424;BME280;69765;47.668;19.326;2023-09-08T14:10:46;99581.56;;;29.88;26.85
80424;BME280;69765;47.668;19.326;2023-09-08T14:13:51;99577.00;;;30.12;28.18
80424;BME280;69765;47.668;19.326;2023-09-08T14:16:54;99574.56;;;29.73;28.89
80424;BME280;69765;47.668;19.326;2023-09-08T14:19:56;99579.09;;;29.30;28.46
80424;BME280;69765;47.668;19.326;2023-09-08T14:22:59;99580.91;;;29.19;29.13
80424;BME280;69765;47.668;19.326;2023-09-08T14:26:01;99577.28;;;29.61;28.38
80424;BME280;69765;47.668;19.326;2023-09-08T14:29:04;99572.72;;;29.88;27.93
80424;BME280;69765;47.668;19.326;2023-09-08T14:32:06;99579.91;;;29.64;27.71
80424;BME280;69765;47.668;19.326;2023-09-08T14:35:09;99574.75;;;29.11;28.31
80424;BME280;69765;47.668;19.326;2023-09-08T14:38:14;99565.09;;;29.11;29.08
80424;BME280;69765;47.668;19.326;2023-09-08T14:41:18;99579.22;;;28.95;27.51
80424;BME280;69765;47.668;19.326;2023-09-08T14:44:21;99568.66;;;28.80;28.96
80424;BME280;69765;47.668;19.326;2023-09-08T14:47:25;99571.28;;;28.73;29.08
80424;BME280;69765;47.668;19.326;2023-09-08T14:50:27;99561.63;;;28.71;29.46
80424;BME280;69765;47.668;19.326;2023-09-08T14:53:30;99552.81;;;28.95;29.67
80424;BME280;69765;47.668;19.326;2023-09-08T14:56:34;99558.06;;;28.98;28.21
80424;BME280;69765;47.668;19.326;2023-09-08T14:59:36;99548.44;;;28.33;29.16
80424;BME280;69765;47.668;19.326;2023-09-08T15:02:38;99558.06;;;28.11;28.87
80424;BME280;69765;47.668;19.326;2023-09-08T15:05:41;99544.88;;;28.09;29.93
80424;BME280;69765;47.668;19.326;2023-09-08T15:08:43;99557.25;;;28.42;30.20
80424;BME280;69765;47.668;19.326;2023-09-08T15:11:47;99558.97;;;28.45;30.17
80424;BME280;69765;47.668;19.326;2023-09-08T15:14:50;99558.13;;;28.57;29.62
80424;BME280;69765;47.668;19.326;2023-09-08T15:17:53;99557.25;;;28.42;29.44
80424;BME280;69765;47.668;19.326;2023-09-08T15:20:56;99551.03;;;28.17;30.75
80424;BME280;69765;47.668;19.326;2023-09-08T15:23:59;99551.00;;;27.96;31.35
80424;BME280;69765;47.668;19.326;2023-09-08T15:27:02;99549.25;;;27.95;30.30
80424;BME280;69765;47.668;19.326;2023-09-08T15:30:06;99558.91;;;27.93;30.63
80424;BME280;69765;47.668;19.326;2023-09-08T15:33:09;99552.75;;;27.86;31.30
80424;BME280;69765;47.668;19.326;2023-09-08T15:36:12;99546.56;;;27.72;33.07
80424;BME280;69765;47.668;19.326;2023-09-08T15:39:15;99546.41;;;27.47;31.92
80424;BME280;69765;47.668;19.326;2023-09-08T15:42:17;99541.13;;;27.38;32.94
80424;BME280;69765;47.668;19.326;2023-09-08T15:45:20;99555.19;;;27.40;31.29
80424;BME280;69765;47.668;19.326;2023-09-08T15:48:22;99547.28;;;27.40;32.22
80424;BME280;69765;47.668;19.326;2023-09-08T15:51:25;99550.72;;;27.27;33.81
80424;BME280;69765;47.668;19.326;2023-09-08T15:54:27;99557.66;;;27.08;33.37
80424;BME280;69765;47.668;19.326;2023-09-08T15:57:30;99545.22;;;26.90;36.73
80424;BME280;69765;47.668;19.326;2023-09-08T16:00:32;99545.94;;;26.65;36.43
80424;BME280;69765;47.668;19.326;2023-09-08T16:03:35;99550.25;;;26.55;35.08
80424;BME280;69765;47.668;19.326;2023-09-08T16:06:38;99549.38;;;26.56;36.61
80424;BME280;69765;47.668;19.326;2023-09-08T16:09:41;99545.66;;;26.31;36.89
80424;BME280;69765;47.668;19.326;2023-09-08T16:12:44;99547.31;;;26.23;37.47
80424;BME280;69765;47.668;19.326;2023-09-08T16:15:46;99551.66;;;26.18;38.71
80424;BME280;69765;47.668;19.326;2023-09-08T16:18:49;99543.63;;;26.04;38.67
80424;BME280;69765;47.668;19.326;2023-09-08T16:21:51;99533.88;;;25.92;40.53
80424;BME280;69765;47.668;19.326;2023-09-08T16:24:53;99533.75;;;25.79;39.43
80424;BME280;69765;47.668;19.326;2023-09-08T16:27:56;99536.25;;;25.71;38.93
80424;BME280;69765;47.668;19.326;2023-09-08T16:31:05;99530.03;;;25.60;39.21
80424;BME280;69765;47.668;19.326;2023-09-08T16:34:08;99540.47;;;25.57;41.97
80424;BME280;69765;47.668;19.326;2023-09-08T16:37:10;99538.38;;;25.28;41.52
80424;BME280;69765;47.668;19.326;2023-09-08T16:40:13;99549.28;;;24.98;43.64
80424;BME280;69765;47.668;19.326;2023-09-08T16:43:16;99546.16;;;24.64;45.45
80424;BME280;69765;47.668;19.326;2023-09-08T16:46:18;99551.16;;;24.47;44.14
80424;BME280;69765;47.668;19.326;2023-09-08T16:49:21;99552.13;;;24.56;43.37
80424;BME280;69765;47.668;19.326;2023-09-08T16:52:23;99549.25;;;24.40;43.32
80424;BME280;69765;47.668;19.326;2023-09-08T16:55:26;99548.13;;;24.28;43.83
80424;BME280;69765;47.668;19.326;2023-09-08T16:58:28;99554.06;;;24.17;43.95
80424;BME280;69765;47.668;19.326;2023-09-08T17:01:31;99551.16;;;24.01;44.80
80424;BME280;69765;47.668;19.326;2023-09-08T17:04:33;99544.94;;;23.94;45.61
80424;BME280;69765;47.668;19.326;2023-09-08T17:07:38;99550.91;;;23.87;45.85
80424;BME280;69765;47.668;19.326;2023-09-08T17:10:40;99563.63;;;23.67;46.02
80424;BME280;69765;47.668;19.326;2023-09-08T17:13:42;99552.16;;;23.63;47.53
80424;BME280;69765;47.668;19.326;2023-09-08T17:16:45;99558.84;;;23.49;47.11
80424;BME280;69765;47.668;19.326;2023-09-08T17:19:47;99563.63;;;23.28;47.91
80424;BME280;69765;47.668;19.326;2023-09-08T17:22:49;99566.91;;;23.19;46.99
80424;BME280;69765;47.668;19.326;2023-09-08T17:25:52;99578.59;;;22.95;49.14
80424;BME280;69765;47.668;19.326;2023-09-08T17:28:55;99572.88;;;22.76;48.60
80424;BME280;69765;47.668;19.326;2023-09-08T17:31:57;99575.47;;;22.76;50.09
80424;BME280;69765;47.668;19.326;2023-09-08T17:35:01;99592.56;;;22.61;51.33
80424;BME280;69765;47.668;19.326;2023-09-08T17:38:03;99583.97;;;22.31;52.41
80424;BME280;69765;47.668;19.326;2023-09-08T17:41:06;99592.25;;;22.16;52.28
80424;BME280;69765;47.668;19.326;2023-09-08T17:44:09;99595.50;;;22.07;53.45
80424;BME280;69765;47.668;19.326;2023-09-08T17:47:11;99593.22;;;22.19;52.42
80424;BME280;69765;47.668;19.326;2023-09-08T17:50:14;99601.03;;;22.18;51.73
80424;BME280;69765;47.668;19.326;2023-09-08T17:53:17;99607.72;;;22.10;51.85
80424;BME280;69765;47.668;19.326;2023-09-08T17:56:19;99606.97;;;22.12;52.76
80424;BME280;69765;47.668;19.326;2023-09-08T17:59:21;99601.25;;;21.95;52.44
80424;BME280;69765;47.668;19.326;2023-09-08T18:02:24;99613.13;;;21.84;53.48
80424;BME280;69765;47.668;19.326;2023-09-08T18:05:27;99614.31;;;21.65;52.77
80424;BME280;69765;47.668;19.326;2023-09-08T18:08:30;99613.88;;;21.50;53.21
80424;BME280;69765;47.668;19.326;2023-09-08T18:11:32;99614.19;;;21.61;52.67
80424;BME280;69765;47.668;19.326;2023-09-08T18:14:35;99617.38;;;21.51;52.64
80424;BME280;69765;47.668;19.326;2023-09-08T18:17:37;99608.59;;;21.49;52.76
80424;BME280;69765;47.668;19.326;2023-09-08T18:20:39;99623.38;;;21.48;53.12
80424;BME280;69765;47.668;19.326;2023-09-08T18:23:42;99625.97;;;21.48;52.89
80424;BME280;69765;47.668;19.326;2023-09-08T18:26:44;99621.38;;;21.39;53.59
80424;BME280;69765;47.668;19.326;2023-09-08T18:29:47;99622.72;;;21.27;54.17
80424;BME280;69765;47.668;19.326;2023-09-08T18:32:50;99617.94;;;21.13;54.41
80424;BME280;69765;47.668;19.326;2023-09-08T18:35:52;99615.13;;;21.07;55.19
80424;BME280;69765;47.668;19.326;2023-09-08T18:38:54;99617.69;;;21.06;55.22
80424;BME280;69765;47.668;19.326;2023-09-08T18:41:57;99616.81;;;21.05;55.28
80424;BME280;69765;47.668;19.326;2023-09-08T18:45:00;99614.09;;;21.02;55.75
80424;BME280;69765;47.668;19.326;2023-09-08T18:48:03;99619.16;;;20.98;55.20
80424;BME280;69765;47.668;19.326;2023-09-08T18:51:05;99614.03;;;20.99;55.54
80424;BME280;69765;47.668;19.326;2023-09-08T18:54:08;99613.00;;;20.94;55.78
80424;BME280;69765;47.668;19.326;2023-09-08T18:57:10;99614.75;;;20.95;55.92
80424;BME280;69765;47.668;19.326;2023-09-08T19:00:13;99598.00;;;20.87;56.95
80424;BME280;69765;47.668;19.326;2023-09-08T19:03:15;99610.97;;;20.85;57.49
80424;BME280;69765;47.668;19.326;2023-09-08T19:06:18;99615.91;;;20.51;59.94
80424;BME280;69765;47.668;19.326;2023-09-08T19:09:22;99614.91;;;19.98;62.89
80424;BME280;69765;47.668;19.326;2023-09-08T19:12:24;99619.81;;;19.66;63.47
80424;BME280;69765;47.668;19.326;2023-09-08T19:15:27;99618.75;;;19.61;62.22
80424;BME280;69765;47.668;19.326;2023-09-08T19:18:29;99615.03;;;19.77;61.84
80424;BME280;69765;47.668;19.326;2023-09-08T19:21:32;99607.69;;;19.66;64.26
80424;BME280;69765;47.668;19.326;2023-09-08T19:24:34;99609.78;;;19.53;65.30
80424;BME280;69765;47.668;19.326;2023-09-08T19:27:37;99612.22;;;19.48;62.66
80424;BME280;69765;47.668;19.326;2023-09-08T19:30:46;99615.75;;;19.73;61.24
80424;BME280;69765;47.668;19.326;2023-09-08T19:33:49;99606.78;;;19.88;60.60
80424;BME280;69765;47.668;19.326;2023-09-08T19:36:51;99607.91;;;19.95;59.92
80424;BME280;69765;47.668;19.326;2023-09-08T19:39:54;99603.78;;;20.02;59.55
80424;BME280;69765;47.668;19.326;2023-09-08T19:42:56;99607.13;;;19.74;63.25
80424;BME280;69765;47.668;19.326;2023-09-08T19:46:05;99607.81;;;19.70;61.44
80424;BME280;69765;47.668;19.326;2023-09-08T19:49:08;99608.53;;;19.65;63.06
80424;BME280;69765;47.668;19.326;2023-09-08T19:52:11;99611.78;;;19.37;64.92
80424;BME280;69765;47.668;19.326;2023-09-08T19:55:14;99612.75;;;19.17;66.26
80424;BME280;69765;47.668;19.326;2023-09-08T19:58:17;99618.56;;;18.89;67.88
80424;BME280;69765;47.668;19.326;2023-09-08T20:01:19;99614.63;;;18.57;69.02
80424;BME280;69765;47.668;19.326;2023-09-08T20:04:22;99621.31;;;18.52;69.16
80424;BME280;69765;47.668;19.326;2023-09-08T20:07:24;99617.00;;;18.52;69.11
80424;BME280;69765;47.668;19.326;2023-09-08T20:10:26;99613.19;;;18.63;69.39
80424;BME280;69765;47.668;19.326;2023-09-08T20:13:29;99614.22;;;18.48;70.45
80424;BME280;69765;47.668;19.326;2023-09-08T20:16:31;99619.31;;;18.45;69.64
80424;BME280;69765;47.668;19.326;2023-09-08T20:19:33;99619.31;;;18.45;70.57
80424;BME280;69765;47.668;19.326;2023-09-08T20:22:36;99625.44;;;18.26;70.46
80424;BME280;69765;47.668;19.326;2023-09-08T20:25:39;99622.03;;;18.07;71.28
80424;BME280;69765;47.668;19.326;2023-09-08T20:28:43;99622.84;;;18.06;71.31
80424;BME280;69765;47.668;19.326;2023-09-08T20:31:46;99618.28;;;18.01;72.38
80424;BME280;69765;47.668;19.326;2023-09-08T20:34:48;99616.06;;;17.89;72.12
80424;BME280;69765;47.668;19.326;2023-09-08T20:37:50;99608.97;;;17.85;72.66
80424;BME280;69765;47.668;19.326;2023-09-08T20:40:53;99614.56;;;17.75;72.28
80424;BME280;69765;47.668;19.326;2023-09-08T20:43:55;99608.81;;;17.82;72.44
80424;BME280;69765;47.668;19.326;2023-09-08T20:46:57;99606.94;;;17.60;72.77
80424;BME280;69765;47.668;19.326;2023-09-08T20:50:00;99610.28;;;17.57;73.57
80424;BME280;69765;47.668;19.326;2023-09-08T20:53:02;99617.91;;;17.54;73.93
80424;BME280;69765;47.668;19.326;2023-09-08T20:56:05;99614.19;;;17.30;74.83
80424;BME280;69765;47.668;19.326;2023-09-08T20:59:09;99610.09;;;17.35;74.69
80424;BME280;69765;47.668;19.326;2023-09-08T21:02:11;99612.81;;;17.19;75.34
80424;BME280;69765;47.668;19.326;2023-09-08T21:05:13;99610.53;;;17.07;76.16
80424;BME280;69765;47.668;19.326;2023-09-08T21:08:17;99603.56;;;17.24;74.55
80424;BME280;69765;47.668;19.326;2023-09-08T21:11:20;99608.41;;;17.35;73.75
80424;BME280;69765;47.668;19.326;2023-09-08T21:14:23;99609.13;;;17.51;73.39
80424;BME280;69765;47.668;19.326;2023-09-08T21:17:25;99607.47;;;17.53;72.50
80424;BME280;69765;47.668;19.326;2023-09-08T21:20:28;99609.19;;;17.52;72.99
80424;BME280;69765;47.668;19.326;2023-09-08T21:23:30;99613.53;;;17.53;72.85
80424;BME280;69765;47.668;19.326;2023-09-08T21:26:32;99613.00;;;17.41;74.38
80424;BME280;69765;47.668;19.326;2023-09-08T21:29:35;99612.91;;;17.40;73.84
80424;BME280;69765;47.668;19.326;2023-09-08T21:32:38;99607.31;;;17.30;74.10
80424;BME280;69765;47.668;19.326;2023-09-08T21:35:40;99603.78;;;17.28;75.02
80424;BME280;69765;47.668;19.326;2023-09-08T21:38:43;99610.75;;;17.11;74.91
80424;BME280;69765;47.668;19.326;2023-09-08T21:41:45;99605.44;;;17.08;75.07
80424;BME280;69765;47.668;19.326;2023-09-08T21:44:48;99609.19;;;16.97;75.47
80424;BME280;69765;47.668;19.326;2023-09-08T21:47:50;99613.44;;;16.95;76.59
80424;BME280;69765;47.668;19.326;2023-09-08T21:50:54;99610.25;;;16.83;76.74
80424;BME280;69765;47.668;19.326;2023-09-08T21:53:56;99608.41;;;16.80;76.61
80424;BME280;69765;47.668;19.326;2023-09-08T21:56:59;99606.38;;;16.75;77.36
80424;BME280;69765;47.668;19.326;2023-09-08T22:00:01;99605.31;;;16.53;78.00
80424;BME280;69765;47.668;19.326;2023-09-08T22:03:11;99605.25;;;16.52;78.39
80424;BME280;69765;47.668;19.326;2023-09-08T22:06:14;99595.84;;;16.36;79.25
80424;BME280;69765;47.668;19.326;2023-09-08T22:09:16;99599.06;;;16.32;79.31
80424;BME280;69765;47.668;19.326;2023-09-08T22:12:20;99597.75;;;16.40;78.83
80424;BME280;69765;47.668;19.326;2023-09-08T22:15:22;99602.81;;;16.55;78.33
80424;BME280;69765;47.668;19.326;2023-09-08T22:18:24;99595.63;;;16.49;78.66
80424;BME280;69765;47.668;19.326;2023-09-08T22:21:27;99599.69;;;16.44;78.64
80424;BME280;69765;47.668;19.326;2023-09-08T22:24:30;99597.69;;;16.39;78.50
80424;BME280;69765;47.668;19.326;2023-09-08T22:27:32;99595.81;;;16.52;77.04
80424;BME280;69765;47.668;19.326;2023-09-08T22:30:35;99604.22;;;16.48;78.04
80424;BME280;69765;47.668;19.326;2023-09-08T22:33:38;99592.56;;;16.22;79.18
80424;BME280;69765;47.668;19.326;2023-09-08T22:36:41;99595.66;;;16.15;79.41
80424;BME280;69765;47.668;19.326;2023-09-08T22:39:43;99592.09;;;16.13;79.07
80424;BME280;69765;47.668;19.326;2023-09-08T22:42:46;99595.44;;;16.10;79.43
80424;BME280;69765;47.668;19.326;2023-09-08T22:45:48;99593.84;;;15.96;79.97
80424;BME280;69765;47.668;19.326;2023-09-08T22:48:51;99601.59;;;15.96;80.11
80424;BME280;69765;47.668;19.326;2023-09-08T22:51:53;99604.88;;;15.94;81.18
80424;BME280;69765;47.668;19.326;2023-09-08T22:54:56;99604.34;;;15.83;80.45
80424;BME280;69765;47.668;19.326;2023-09-08T22:58:18;99602.34;;;15.77;80.88
80424;BME280;69765;47.668;19.326;2023-09-08T23:01:20;99599.66;;;15.76;80.63
80424;BME280;69765;47.668;19.326;2023-09-08T23:04:23;99599.56;;;15.74;81.17
80424;BME280;69765;47.668;19.326;2023-09-08T23:07:26;99597.56;;;15.69;81.30
80424;BME280;69765;47.668;19.326;2023-09-08T23:10:28;99598.69;;;15.57;82.43
80424;BME280;69765;47.668;19.326;2023-09-08T23:13:30;99598.50;;;15.54;81.94
80424;BME280;69765;47.668;19.326;2023-09-08T23:16:33;99602.38;;;15.63;81.32
80424;BME280;69765;47.668;19.326;2023-09-08T23:19:35;99597.03;;;15.59;81.54
80424;BME280;69765;47.668;19.326;2023-09-08T23:22:37;99598.09;;;15.63;81.60
80424;BME280;69765;47.668;19.326;2023-09-08T23:25:40;99599.38;;;15.55;81.80
80424;BME280;69765;47.668;19.326;2023-09-08T23:28:42;99605.25;;;15.52;82.49
80424;BME280;69765;47.668;19.326;2023-09-08T23:31:44;99608.53;;;15.65;81.98
80424;BME280;69765;47.668;19.326;2023-09-08T23:34:47;99590.09;;;15.58;82.15
80424;BME280;69765;47.668;19.326;2023-09-08T23:37:49;99600.63;;;15.78;81.02
80424;BME280;69765;47.668;19.326;2023-09-08T23:40:51;99599.13;;;15.99;79.55
80424;BME280;69765;47.668;19.326;2023-09-08T23:43:54;99592.91;;;16.12;79.15
80424;BME280;69765;47.668;19.326;2023-09-08T23:46:56;99595.31;;;16.25;78.96
80424;BME280;69765;47.668;19.326;2023-09-08T23:49:59;99609.41;;;16.14;79.92
80424;BME280;69765;47.668;19.326;2023-09-08T23:53:05;99602.88;;;15.88;81.02
80424;BME280;69765;47.668;19.326;2023-09-08T23:56:07;99600.31;;;15.72;81.27
80424;BME280;69765;47.668;19.326;2023-09-08T23:59:09;99602.59;;;15.51;82.18
